Coro, Venezuela
Current Conditions -  °F | °C
As of 4:00 PM on Tuesday 25 Nov 2014 (Local Time) from TNCC Reporting Station
Scattered Clouds Scattered Clouds  
Wind Chill: 84°   Ceiling: Unl
Heat Index: 90°   Visibility: 6mi
Dew Point: 72°   Wind: 14mph
Humidity: 66%   Direction: 100°E
Pressure: 29.85"   Gusts: NA
Location:  11.42°N, 69.68°W
Report Text: TNCC 252000Z 10012KT 9999 SCT023 29/22 Q1011 NOSIG
Loading
Personal Weather Stations






























Interactive Weather Map New forecast layout! Learn more

10-Day Weather Forecast

Advertisements
Track Severe Weather on mobile